メインページ
METAR-TAF:

METAR-TAF

空港 :

ヘルシンキ, フィンランド

ヘルシンキ・ヴァンター国際空港

緯度: 60-19N, 経度: 024-58E, 海抜: 51m

現時点の気象観測

当レポートは17分前の19:20(UTC)に作成
北/北西の風 9kt
気温 -7°C
湿度 79%
気圧 1033 hPa
視程10km以上
1,500メートル以下は雲なし、積乱雲なし

METAR: EFHK 251920Z 34009KT CAVOK M07/M10 Q1033 NOSIG

時間: 21:37 (19:37 UTC)

予報

当レポートは2時間8分前の17:29(UTC)に作成
予報は25日の 18時(UTC)から 26日の 18時(UTC)まで有効
の風 7kt
視程10km以上
高度3000ftの雲はほとんどない
25日の 21時(UTC)から 26日の 15時(UTC)まで一時的に
視程: 4000m
小雪

TAF: EFHK 251729Z 2518/2618 35007KT 9999 FEW030 TEMPO 2521/2615 4000 -SN

4,000以上の空港の気象観測と天気予報(METAR報とTAF報)

利用可能な観測所は地図上に黄色い丸と赤い丸で示す。

丸の上にカーソルを重ねると観測所名を参照できる。

次にクリックすると気象観測と天気予報を参照できる。

マップの切り替え:黒色「×」印の緑ボタンをクリックして拡大、「-」印の緑ボタンをクリックして縮小、緑色の三角印をクリックして隣りの地図に切り替え


METAR-TAF: